sensor_id;sensor_type;location;lat;lon;timestamp;pressure;altitude;pressure_sealevel;temperature;humidity
75166;BME280;63747;48.042;10.088;2024-01-07T00:02:33;94417.63;;;0.55;75.05
75166;BME280;63747;48.042;10.088;2024-01-07T00:05:36;94410.91;;;0.62;75.32
75166;BME280;63747;48.042;10.088;2024-01-07T00:08:37;94417.66;;;0.74;75.18
75166;BME280;63747;48.042;10.088;2024-01-07T00:11:38;94418.78;;;0.82;75.32
75166;BME280;63747;48.042;10.088;2024-01-07T00:14:39;94416.06;;;0.83;75.00
75166;BME280;63747;48.042;10.088;2024-01-07T00:17:40;94421.53;;;0.80;75.12
75166;BME280;63747;48.042;10.088;2024-01-07T00:20:41;94417.53;;;0.76;75.36
75166;BME280;63747;48.042;10.088;2024-01-07T00:23:41;94409.38;;;0.60;75.37
75166;BME280;63747;48.042;10.088;2024-01-07T00:26:42;94408.13;;;0.54;75.74
75166;BME280;63747;48.042;10.088;2024-01-07T00:29:43;94414.81;;;0.47;76.08
75166;BME280;63747;48.042;10.088;2024-01-07T00:32:44;94408.91;;;0.45;76.26
75166;BME280;63747;48.042;10.088;2024-01-07T00:35:45;94415.09;;;0.44;76.41
75166;BME280;63747;48.042;10.088;2024-01-07T00:38:45;94410.03;;;0.42;76.74
75166;BME280;63747;48.042;10.088;2024-01-07T00:41:46;94410.44;;;0.47;76.55
75166;BME280;63747;48.042;10.088;2024-01-07T00:44:47;94412.09;;;0.48;76.65
75166;BME280;63747;48.042;10.088;2024-01-07T00:47:47;94415.78;;;0.46;76.70
75166;BME280;63747;48.042;10.088;2024-01-07T00:50:48;94415.34;;;0.41;76.75
75166;BME280;63747;48.042;10.088;2024-01-07T00:53:49;94412.50;;;0.44;76.78
75166;BME280;63747;48.042;10.088;2024-01-07T00:56:49;94407.97;;;0.46;76.85
75166;BME280;63747;48.042;10.088;2024-01-07T00:59:50;94415.09;;;0.44;76.71
75166;BME280;63747;48.042;10.088;2024-01-07T01:02:51;94414.81;;;0.47;76.94
75166;BME280;63747;48.042;10.088;2024-01-07T01:05:53;94413.47;;;0.53;76.82
75166;BME280;63747;48.042;10.088;2024-01-07T01:08:56;94418.00;;;0.50;76.62
75166;BME280;63747;48.042;10.088;2024-01-07T01:11:57;94414.41;;;0.42;76.73
75166;BME280;63747;48.042;10.088;2024-01-07T01:14:57;94423.56;;;0.36;77.05
75166;BME280;63747;48.042;10.088;2024-01-07T01:17:58;94418.06;;;0.30;77.20
75166;BME280;63747;48.042;10.088;2024-01-07T01:20:59;94424.22;;;0.29;77.21
75166;BME280;63747;48.042;10.088;2024-01-07T01:23:59;94429.44;;;0.29;77.35
75166;BME280;63747;48.042;10.088;2024-01-07T01:27:00;94426.69;;;0.30;77.27
75166;BME280;63747;48.042;10.088;2024-01-07T01:30:01;94424.66;;;0.34;77.26
75166;BME280;63747;48.042;10.088;2024-01-07T01:33:01;94427.16;;;0.45;77.30
75166;BME280;63747;48.042;10.088;2024-01-07T01:36:06;94425.53;;;0.44;77.04
75166;BME280;63747;48.042;10.088;2024-01-07T01:39:10;94423.88;;;0.43;76.96
75166;BME280;63747;48.042;10.088;2024-01-07T01:42:10;94427.56;;;0.40;76.95
75166;BME280;63747;48.042;10.088;2024-01-07T01:45:11;94423.56;;;0.36;76.90
75166;BME280;63747;48.042;10.088;2024-01-07T01:48:13;94427.78;;;0.28;76.99
75166;BME280;63747;48.042;10.088;2024-01-07T01:51:13;94430.91;;;0.21;77.15
75166;BME280;63747;48.042;10.088;2024-01-07T01:54:14;94428.84;;;0.15;77.34
75166;BME280;63747;48.042;10.088;2024-01-07T01:57:17;94433.91;;;0.17;77.43
75166;BME280;63747;48.042;10.088;2024-01-07T02:00:21;94429.50;;;0.17;77.48
75166;BME280;63747;48.042;10.088;2024-01-07T02:03:21;94437.66;;;0.24;77.26
75166;BME280;63747;48.042;10.088;2024-01-07T02:06:22;94425.81;;;0.20;77.28
75166;BME280;63747;48.042;10.088;2024-01-07T02:09:23;94423.28;;;0.30;77.18
75166;BME280;63747;48.042;10.088;2024-01-07T02:12:24;94417.84;;;0.42;77.10
75166;BME280;63747;48.042;10.088;2024-01-07T02:15:25;94429.69;;;0.56;76.66
75166;BME280;63747;48.042;10.088;2024-01-07T02:18:25;94424.47;;;0.56;76.44
75166;BME280;63747;48.042;10.088;2024-01-07T02:21:26;94423.75;;;0.54;76.31
75166;BME280;63747;48.042;10.088;2024-01-07T02:24:28;94423.75;;;0.54;76.47
75166;BME280;63747;48.042;10.088;2024-01-07T02:27:30;94420.22;;;0.55;76.44
75166;BME280;63747;48.042;10.088;2024-01-07T02:30:31;94419.81;;;0.60;76.49
75166;BME280;63747;48.042;10.088;2024-01-07T02:33:32;94423.38;;;0.59;76.35
75166;BME280;63747;48.042;10.088;2024-01-07T02:36:33;94421.06;;;0.56;76.62
75166;BME280;63747;48.042;10.088;2024-01-07T02:39:33;94418.31;;;0.57;76.61
75166;BME280;63747;48.042;10.088;2024-01-07T02:42:37;94415.41;;;0.60;76.61
75166;BME280;63747;48.042;10.088;2024-01-07T02:45:38;94419.00;;;0.59;76.51
75166;BME280;63747;48.042;10.088;2024-01-07T02:48:38;94419.28;;;0.66;76.48
75166;BME280;63747;48.042;10.088;2024-01-07T02:51:39;94416.59;;;0.46;76.96
75166;BME280;63747;48.042;10.088;2024-01-07T02:54:39;94426.84;;;0.29;77.31
75166;BME280;63747;48.042;10.088;2024-01-07T02:57:40;94416.03;;;0.12;78.17
75166;BME280;63747;48.042;10.088;2024-01-07T03:00:41;94415.09;;;0.13;78.25
75166;BME280;63747;48.042;10.088;2024-01-07T03:03:42;94418.41;;;0.15;78.47
75166;BME280;63747;48.042;10.088;2024-01-07T03:06:45;94421.38;;;0.11;78.55
75166;BME280;63747;48.042;10.088;2024-01-07T03:09:46;94422.56;;;-0.03;79.08
75166;BME280;63747;48.042;10.088;2024-01-07T03:12:48;94419.81;;;-0.01;78.86
75166;BME280;63747;48.042;10.088;2024-01-07T03:15:49;94420.44;;;0.12;78.54
75166;BME280;63747;48.042;10.088;2024-01-07T03:18:50;94417.97;;;0.10;78.35
75166;BME280;63747;48.042;10.088;2024-01-07T03:21:50;94417.00;;;0.11;78.26
75166;BME280;63747;48.042;10.088;2024-01-07T03:24:51;94422.59;;;0.07;78.19
75166;BME280;63747;48.042;10.088;2024-01-07T03:27:52;94418.91;;;0.09;78.30
75166;BME280;63747;48.042;10.088;2024-01-07T03:30:52;94418.50;;;0.14;77.93
75166;BME280;63747;48.042;10.088;2024-01-07T03:33:53;94412.16;;;0.07;78.27
75166;BME280;63747;48.042;10.088;2024-01-07T03:36:54;94420.69;;;0.09;78.11
75166;BME280;63747;48.042;10.088;2024-01-07T03:39:55;94416.19;;;0.11;78.09
75166;BME280;63747;48.042;10.088;2024-01-07T03:42:56;94420.19;;;0.15;78.00
75166;BME280;63747;48.042;10.088;2024-01-07T03:45:56;94415.00;;;0.24;77.86
75166;BME280;63747;48.042;10.088;2024-01-07T03:48:57;94425.44;;;0.24;77.81
75166;BME280;63747;48.042;10.088;2024-01-07T03:51:58;94419.09;;;0.17;77.77
75166;BME280;63747;48.042;10.088;2024-01-07T03:54:59;94427.88;;;0.16;77.57
75166;BME280;63747;48.042;10.088;2024-01-07T03:58:00;94424.44;;;0.16;77.72
75166;BME280;63747;48.042;10.088;2024-01-07T04:01:01;94424.97;;;0.10;77.65
75166;BME280;63747;48.042;10.088;2024-01-07T04:04:01;94434.41;;;0.11;77.56
75166;BME280;63747;48.042;10.088;2024-01-07T04:07:02;94435.50;;;0.08;77.64
75166;BME280;63747;48.042;10.088;2024-01-07T04:10:03;94428.22;;;0.02;77.40
75166;BME280;63747;48.042;10.088;2024-01-07T04:13:04;94437.41;;;0.06;77.58
75166;BME280;63747;48.042;10.088;2024-01-07T04:16:05;94438.34;;;0.05;77.53
75166;BME280;63747;48.042;10.088;2024-01-07T04:19:06;94435.63;;;0.07;77.20
75166;BME280;63747;48.042;10.088;2024-01-07T04:22:07;94438.63;;;0.02;77.30
75166;BME280;63747;48.042;10.088;2024-01-07T04:25:08;94443.56;;;0.05;77.36
75166;BME280;63747;48.042;10.088;2024-01-07T04:28:08;94444.41;;;0.06;77.31
75166;BME280;63747;48.042;10.088;2024-01-07T04:31:10;94448.91;;;0.04;77.05
75166;BME280;63747;48.042;10.088;2024-01-07T04:34:10;94444.53;;;0.04;77.31
75166;BME280;63747;48.042;10.088;2024-01-07T04:37:11;94449.59;;;0.06;77.06
75166;BME280;63747;48.042;10.088;2024-01-07T04:40:12;94450.00;;;0.01;77.04
75166;BME280;63747;48.042;10.088;2024-01-07T04:43:12;94449.06;;;0.02;77.22
75166;BME280;63747;48.042;10.088;2024-01-07T04:46:13;94450.38;;;-0.04;77.26
75166;BME280;63747;48.042;10.088;2024-01-07T04:49:14;94451.91;;;-0.01;77.11
75166;BME280;63747;48.042;10.088;2024-01-07T04:52:15;94457.56;;;0.04;77.22
75166;BME280;63747;48.042;10.088;2024-01-07T04:55:16;94461.50;;;-0.01;77.05
75166;BME280;63747;48.042;10.088;2024-01-07T04:58:16;94464.50;;;-0.06;77.25
75166;BME280;63747;48.042;10.088;2024-01-07T05:01:17;94461.69;;;-0.14;77.71
75166;BME280;63747;48.042;10.088;2024-01-07T05:04:18;94467.66;;;-0.23;78.22
75166;BME280;63747;48.042;10.088;2024-01-07T05:07:18;94468.41;;;-0.33;79.46
75166;BME280;63747;48.042;10.088;2024-01-07T05:10:19;94472.22;;;-0.37;79.60
75166;BME280;63747;48.042;10.088;2024-01-07T05:13:19;94479.75;;;-0.34;79.79
75166;BME280;63747;48.042;10.088;2024-01-07T05:16:20;94481.31;;;-0.31;79.87
75166;BME280;63747;48.042;10.088;2024-01-07T05:19:21;94483.41;;;-0.25;79.80
75166;BME280;63747;48.042;10.088;2024-01-07T05:22:23;94478.56;;;-0.29;80.11
75166;BME280;63747;48.042;10.088;2024-01-07T05:25:24;94489.47;;;-0.36;80.17
75166;BME280;63747;48.042;10.088;2024-01-07T05:28:25;94485.84;;;-0.44;80.57
75166;BME280;63747;48.042;10.088;2024-01-07T05:31:26;94484.91;;;-0.43;80.86
75166;BME280;63747;48.042;10.088;2024-01-07T05:34:27;94486.22;;;-0.49;80.81
75166;BME280;63747;48.042;10.088;2024-01-07T05:37:28;94487.66;;;-0.56;80.85
75166;BME280;63747;48.042;10.088;2024-01-07T05:40:28;94488.88;;;-0.60;81.15
75166;BME280;63747;48.042;10.088;2024-01-07T05:43:29;94482.34;;;-0.54;80.90
75166;BME280;63747;48.042;10.088;2024-01-07T05:46:30;94493.13;;;-0.59;81.08
75166;BME280;63747;48.042;10.088;2024-01-07T05:49:31;94502.38;;;-0.66;81.42
75166;BME280;63747;48.042;10.088;2024-01-07T05:52:31;94502.59;;;-0.69;81.68
75166;BME280;63747;48.042;10.088;2024-01-07T05:55:32;94499.66;;;-0.65;81.34
75166;BME280;63747;48.042;10.088;2024-01-07T05:58:33;94500.34;;;-0.63;81.36
75166;BME280;63747;48.042;10.088;2024-01-07T06:01:34;94505.66;;;-0.53;81.17
75166;BME280;63747;48.042;10.088;2024-01-07T06:04:37;94511.56;;;-0.51;80.85
75166;BME280;63747;48.042;10.088;2024-01-07T06:07:38;94498.22;;;-0.58;80.68
75166;BME280;63747;48.042;10.088;2024-01-07T06:10:41;94505.19;;;-0.58;80.60
75166;BME280;63747;48.042;10.088;2024-01-07T06:13:42;94507.78;;;-0.58;80.64
75166;BME280;63747;48.042;10.088;2024-01-07T06:16:42;94510.28;;;-0.68;80.92
75166;BME280;63747;48.042;10.088;2024-01-07T06:19:43;94514.66;;;-0.68;81.01
75166;BME280;63747;48.042;10.088;2024-01-07T06:22:44;94509.25;;;-0.65;81.06
75166;BME280;63747;48.042;10.088;2024-01-07T06:25:44;94511.38;;;-0.70;81.18
75166;BME280;63747;48.042;10.088;2024-01-07T06:28:45;94519.88;;;-0.68;81.21
75166;BME280;63747;48.042;10.088;2024-01-07T06:31:46;94518.72;;;-0.75;81.40
75166;BME280;63747;48.042;10.088;2024-01-07T06:34:46;94517.88;;;-0.76;81.53
75166;BME280;63747;48.042;10.088;2024-01-07T06:37:47;94524.31;;;-0.80;81.59
75166;BME280;63747;48.042;10.088;2024-01-07T06:40:48;94518.84;;;-0.77;81.61
75166;BME280;63747;48.042;10.088;2024-01-07T06:43:48;94524.03;;;-0.66;81.27
75166;BME280;63747;48.042;10.088;2024-01-07T06:46:50;94521.50;;;-0.56;81.02
75166;BME280;63747;48.042;10.088;2024-01-07T06:49:51;94523.16;;;-0.55;80.85
75166;BME280;63747;48.042;10.088;2024-01-07T06:52:51;94529.09;;;-0.53;80.77
75166;BME280;63747;48.042;10.088;2024-01-07T06:55:52;94529.09;;;-0.53;80.60
75166;BME280;63747;48.042;10.088;2024-01-07T06:58:53;94529.09;;;-0.53;80.56
75166;BME280;63747;48.042;10.088;2024-01-07T07:01:53;94537.47;;;-0.49;80.55
75166;BME280;63747;48.042;10.088;2024-01-07T07:04:56;94537.81;;;-0.54;80.41
75166;BME280;63747;48.042;10.088;2024-01-07T07:07:57;94541.00;;;-0.50;80.51
75166;BME280;63747;48.042;10.088;2024-01-07T07:11:00;94539.00;;;-0.47;80.50
75166;BME280;63747;48.042;10.088;2024-01-07T07:14:01;94541.34;;;-0.44;80.31
75166;BME280;63747;48.042;10.088;2024-01-07T07:17:02;94544.09;;;-0.45;80.48
75166;BME280;63747;48.042;10.088;2024-01-07T07:20:04;94542.78;;;-0.40;80.50
75166;BME280;63747;48.042;10.088;2024-01-07T07:23:05;94544.97;;;-0.35;80.63
75166;BME280;63747;48.042;10.088;2024-01-07T07:26:06;94555.03;;;-0.31;80.32
75166;BME280;63747;48.042;10.088;2024-01-07T07:29:08;94561.91;;;-0.29;80.31
75166;BME280;63747;48.042;10.088;2024-01-07T07:32:12;94562.66;;;-0.39;80.67
75166;BME280;63747;48.042;10.088;2024-01-07T07:35:12;94554.56;;;-0.36;80.92
75166;BME280;63747;48.042;10.088;2024-01-07T07:38:13;94563.47;;;-0.38;81.41
75166;BME280;63747;48.042;10.088;2024-01-07T07:41:14;94553.88;;;-0.38;81.32
75166;BME280;63747;48.042;10.088;2024-01-07T07:44:15;94562.66;;;-0.39;81.65
75166;BME280;63747;48.042;10.088;2024-01-07T07:47:16;94565.81;;;-0.35;81.52
75166;BME280;63747;48.042;10.088;2024-01-07T07:50:16;94573.28;;;-0.42;81.94
75166;BME280;63747;48.042;10.088;2024-01-07T07:53:17;94579.94;;;-0.49;82.90
75166;BME280;63747;48.042;10.088;2024-01-07T07:56:18;94582.66;;;-0.50;83.11
75166;BME280;63747;48.042;10.088;2024-01-07T07:59:19;94583.97;;;-0.45;83.42
75166;BME280;63747;48.042;10.088;2024-01-07T08:02:19;94578.28;;;-0.50;83.81
75166;BME280;63747;48.042;10.088;2024-01-07T08:05:21;94583.69;;;-0.42;83.56
75166;BME280;63747;48.042;10.088;2024-01-07T08:08:21;94586.19;;;-0.40;83.66
75166;BME280;63747;48.042;10.088;2024-01-07T08:11:22;94581.81;;;-0.40;83.68
75166;BME280;63747;48.042;10.088;2024-01-07T08:14:23;94593.28;;;-0.42;83.96
75166;BME280;63747;48.042;10.088;2024-01-07T08:17:23;94585.94;;;-0.37;84.08
75166;BME280;63747;48.042;10.088;2024-01-07T08:20:24;94594.00;;;-0.40;84.01
75166;BME280;63747;48.042;10.088;2024-01-07T08:23:25;94600.88;;;-0.39;84.09
75166;BME280;63747;48.042;10.088;2024-01-07T08:26:26;94607.72;;;-0.38;83.89
75166;BME280;63747;48.042;10.088;2024-01-07T08:29:26;94599.56;;;-0.45;84.04
75166;BME280;63747;48.042;10.088;2024-01-07T08:32:27;94608.56;;;-0.38;83.82
75166;BME280;63747;48.042;10.088;2024-01-07T08:35:28;94599.91;;;-0.38;83.74
75166;BME280;63747;48.042;10.088;2024-01-07T08:38:28;94609.38;;;-0.37;83.77
75166;BME280;63747;48.042;10.088;2024-01-07T08:41:29;94601.31;;;-0.34;83.75
75166;BME280;63747;48.042;10.088;2024-01-07T08:44:30;94603.56;;;-0.29;83.50
75166;BME280;63747;48.042;10.088;2024-01-07T08:47:31;94611.38;;;-0.29;83.21
75166;BME280;63747;48.042;10.088;2024-01-07T08:50:32;94615.88;;;-0.32;83.03
75166;BME280;63747;48.042;10.088;2024-01-07T08:53:33;94613.50;;;-0.35;82.56
75166;BME280;63747;48.042;10.088;2024-01-07T08:56:34;94615.88;;;-0.32;82.56
75166;BME280;63747;48.042;10.088;2024-01-07T08:59:34;94626.63;;;-0.25;82.19
75166;BME280;63747;48.042;10.088;2024-01-07T09:02:35;94630.28;;;-0.27;82.13
75166;BME280;63747;48.042;10.088;2024-01-07T09:05:36;94634.81;;;-0.29;81.89
75166;BME280;63747;48.042;10.088;2024-01-07T09:08:37;94641.72;;;-0.40;81.86
75166;BME280;63747;48.042;10.088;2024-01-07T09:11:38;94638.25;;;-0.40;81.73
75166;BME280;63747;48.042;10.088;2024-01-07T09:14:39;94657.69;;;-0.44;81.54
75166;BME280;63747;48.042;10.088;2024-01-07T09:17:40;94641.31;;;-0.35;81.61
75166;BME280;63747;48.042;10.088;2024-01-07T09:20:41;94657.56;;;-0.43;81.23
75166;BME280;63747;48.042;10.088;2024-01-07T09:23:41;94648.56;;;-0.39;81.11
75166;BME280;63747;48.042;10.088;2024-01-07T09:26:44;94660.38;;;-0.35;80.80
75166;BME280;63747;48.042;10.088;2024-01-07T09:29:44;94656.13;;;-0.36;80.70
75166;BME280;63747;48.042;10.088;2024-01-07T09:32:45;94664.06;;;-0.48;80.76
75166;BME280;63747;48.042;10.088;2024-01-07T09:35:46;94669.03;;;-0.56;80.81
75166;BME280;63747;48.042;10.088;2024-01-07T09:38:46;94671.53;;;-0.66;81.15
75166;BME280;63747;48.042;10.088;2024-01-07T09:41:47;94667.25;;;-0.67;81.21
75166;BME280;63747;48.042;10.088;2024-01-07T09:44:50;94663.38;;;-0.73;81.26
75166;BME280;63747;48.042;10.088;2024-01-07T09:47:51;94679.56;;;-0.69;81.10
75166;BME280;63747;48.042;10.088;2024-01-07T09:50:52;94672.59;;;-0.69;81.14
75166;BME280;63747;48.042;10.088;2024-01-07T09:53:57;94677.78;;;-0.69;81.06
75166;BME280;63747;48.042;10.088;2024-01-07T09:57:03;94672.72;;;-0.70;81.08
75166;BME280;63747;48.042;10.088;2024-01-07T10:00:07;94674.84;;;-0.64;80.87
75166;BME280;63747;48.042;10.088;2024-01-07T10:03:08;94672.59;;;-0.58;80.80
75166;BME280;63747;48.042;10.088;2024-01-07T10:06:10;94676.63;;;-0.53;80.63
75166;BME280;63747;48.042;10.088;2024-01-07T10:09:12;94678.16;;;-0.51;80.44
75166;BME280;63747;48.042;10.088;2024-01-07T10:12:13;94670.13;;;-0.59;80.41
75166;BME280;63747;48.042;10.088;2024-01-07T10:15:14;94681.69;;;-0.63;80.56
75166;BME280;63747;48.042;10.088;2024-01-07T10:18:15;94678.75;;;-0.70;80.77
75166;BME280;63747;48.042;10.088;2024-01-07T10:21:16;94679.56;;;-0.69;80.86
75166;BME280;63747;48.042;10.088;2024-01-07T10:24:16;94682.41;;;-0.83;81.05
75166;BME280;63747;48.042;10.088;2024-01-07T10:27:17;94683.13;;;-0.93;81.51
75166;BME280;63747;48.042;10.088;2024-01-07T10:30:18;94691.59;;;-1.02;81.91
75166;BME280;63747;48.042;10.088;2024-01-07T10:33:19;94693.28;;;-1.01;82.14
75166;BME280;63747;48.042;10.088;2024-01-07T10:36:20;94689.25;;;-1.05;82.18
75166;BME280;63747;48.042;10.088;2024-01-07T10:39:23;94689.94;;;-1.03;82.17
75166;BME280;63747;48.042;10.088;2024-01-07T10:42:24;94684.53;;;-1.00;82.15
75166;BME280;63747;48.042;10.088;2024-01-07T10:45:25;94690.06;;;-1.04;82.50
75166;BME280;63747;48.042;10.088;2024-01-07T10:48:30;94685.94;;;-1.07;82.78
75166;BME280;63747;48.042;10.088;2024-01-07T10:51:34;94687.56;;;-1.17;82.95
75166;BME280;63747;48.042;10.088;2024-01-07T10:54:36;94683.75;;;-1.24;82.98
75166;BME280;63747;48.042;10.088;2024-01-07T11:00:41;94691.06;;;-1.41;83.36
75166;BME280;63747;48.042;10.088;2024-01-07T11:04:06;94695.25;;;-1.51;83.72
75166;BME280;63747;48.042;10.088;2024-01-07T11:07:18;94687.13;;;-1.46;83.85
75166;BME280;63747;48.042;10.088;2024-01-07T11:10:25;94692.66;;;-1.51;83.62
75166;BME280;63747;48.042;10.088;2024-01-07T11:13:37;94695.50;;;-1.43;83.90
75166;BME280;63747;48.042;10.088;2024-01-07T11:16:41;94699.25;;;-1.58;84.07
75166;BME280;63747;48.042;10.088;2024-01-07T11:19:50;94677.25;;;-1.65;84.15
75166;BME280;63747;48.042;10.088;2024-01-07T11:22:52;94687.53;;;-1.63;84.34
75166;BME280;63747;48.042;10.088;2024-01-07T11:25:52;94697.28;;;-1.54;84.46
75166;BME280;63747;48.042;10.088;2024-01-07T11:28:54;94691.25;;;-1.55;84.38
75166;BME280;63747;48.042;10.088;2024-01-07T11:31:58;94686.97;;;-1.56;84.40
75166;BME280;63747;48.042;10.088;2024-01-07T11:34:59;94684.94;;;-1.63;84.11
75166;BME280;63747;48.042;10.088;2024-01-07T11:38:00;94691.72;;;-1.50;84.20
75166;BME280;63747;48.042;10.088;2024-01-07T11:41:03;94689.94;;;-1.49;84.05
75166;BME280;63747;48.042;10.088;2024-01-07T11:44:05;94697.97;;;-1.52;84.03
75166;BME280;63747;48.042;10.088;2024-01-07T11:47:06;94692.28;;;-1.57;83.86
75166;BME280;63747;48.042;10.088;2024-01-07T11:50:07;94698.31;;;-1.57;83.79
75166;BME280;63747;48.042;10.088;2024-01-07T11:53:08;94690.19;;;-1.52;83.71
75166;BME280;63747;48.042;10.088;2024-01-07T11:56:09;94692.34;;;-1.46;83.58
75166;BME280;63747;48.042;10.088;2024-01-07T11:59:10;94700.72;;;-1.43;83.59
75166;BME280;63747;48.042;10.088;2024-01-07T12:02:11;94704.63;;;-1.48;83.57
75166;BME280;63747;48.042;10.088;2024-01-07T12:05:11;94699.44;;;-1.37;83.32
75166;BME280;63747;48.042;10.088;2024-01-07T12:08:15;94698.94;;;-1.42;83.22
75166;BME280;63747;48.042;10.088;2024-01-07T12:11:16;94702.94;;;-1.49;83.11
75166;BME280;63747;48.042;10.088;2024-01-07T12:14:17;94701.16;;;-1.49;83.09
75166;BME280;63747;48.042;10.088;2024-01-07T12:17:19;94707.53;;;-1.53;83.09
75166;BME280;63747;48.042;10.088;2024-01-07T12:20:20;94709.91;;;-1.50;83.07
75166;BME280;63747;48.042;10.088;2024-01-07T12:23:21;94708.38;;;-1.52;82.93
75166;BME280;63747;48.042;10.088;2024-01-07T12:26:27;94707.59;;;-1.42;82.93
75166;BME280;63747;48.042;10.088;2024-01-07T12:29:28;94709.47;;;-1.44;82.49
75166;BME280;63747;48.042;10.088;2024-01-07T12:32:32;94715.66;;;-1.33;82.37
75166;BME280;63747;48.042;10.088;2024-01-07T12:35:34;94703.97;;;-1.28;81.94
75166;BME280;63747;48.042;10.088;2024-01-07T12:38:38;94713.75;;;-1.31;81.84
75166;BME280;63747;48.042;10.088;2024-01-07T12:41:38;94714.00;;;-1.23;81.73
75166;BME280;63747;48.042;10.088;2024-01-07T12:44:39;94709.50;;;-1.32;81.98
75166;BME280;63747;48.042;10.088;2024-01-07T12:47:41;94713.75;;;-1.31;82.17
75166;BME280;63747;48.042;10.088;2024-01-07T12:50:42;94714.00;;;-1.23;81.96
75166;BME280;63747;48.042;10.088;2024-01-07T12:53:43;94719.34;;;-1.25;82.02
75166;BME280;63747;48.042;10.088;2024-01-07T12:56:44;94719.22;;;-1.23;81.74
75166;BME280;63747;48.042;10.088;2024-01-07T12:59:45;94720.22;;;-1.37;81.77
75166;BME280;63747;48.042;10.088;2024-01-07T13:02:45;94724.47;;;-1.47;82.17
75166;BME280;63747;48.042;10.088;2024-01-07T13:05:47;94736.72;;;-1.49;82.22
75166;BME280;63747;48.042;10.088;2024-01-07T13:08:51;94734.25;;;-1.51;82.39
75166;BME280;63747;48.042;10.088;2024-01-07T13:11:52;94730.94;;;-1.53;82.25
75166;BME280;63747;48.042;10.088;2024-01-07T13:14:53;94739.00;;;-1.45;82.07
75166;BME280;63747;48.042;10.088;2024-01-07T13:17:53;94743.50;;;-1.35;81.97
75166;BME280;63747;48.042;10.088;2024-01-07T13:20:54;94743.31;;;-1.32;81.61
75166;BME280;63747;48.042;10.088;2024-01-07T13:23:55;94742.09;;;-1.39;81.81
75166;BME280;63747;48.042;10.088;2024-01-07T13:26:57;94740.53;;;-1.42;82.00
75166;BME280;63747;48.042;10.088;2024-01-07T13:29:58;94745.53;;;-1.39;81.99
75166;BME280;63747;48.042;10.088;2024-01-07T13:32:59;94752.69;;;-1.43;82.03
75166;BME280;63747;48.042;10.088;2024-01-07T13:36:00;94751.03;;;-1.44;82.19
75166;BME280;63747;48.042;10.088;2024-01-07T13:39:01;94755.22;;;-1.41;81.92
75166;BME280;63747;48.042;10.088;2024-01-07T13:42:02;94756.38;;;-1.45;81.80
75166;BME280;63747;48.042;10.088;2024-01-07T13:45:04;94755.97;;;-1.52;82.02
75166;BME280;63747;48.042;10.088;2024-01-07T13:48:05;94769.91;;;-1.53;82.37
75166;BME280;63747;48.042;10.088;2024-01-07T13:51:08;94767.31;;;-1.53;82.50
75166;BME280;63747;48.042;10.088;2024-01-07T13:54:09;94769.69;;;-1.50;82.27
75166;BME280;63747;48.042;10.088;2024-01-07T13:57:14;94777.47;;;-1.50;81.94
75166;BME280;63747;48.042;10.088;2024-01-07T14:00:15;94775.63;;;-1.48;81.78
75166;BME280;63747;48.042;10.088;2024-01-07T14:03:18;94778.69;;;-1.43;81.78
75166;BME280;63747;48.042;10.088;2024-01-07T14:06:21;94784.34;;;-1.49;81.37
75166;BME280;63747;48.042;10.088;2024-01-07T14:09:22;94791.41;;;-1.51;81.64
75166;BME280;63747;48.042;10.088;2024-01-07T14:12:23;94793.59;;;-1.69;81.66
75166;BME280;63747;48.042;10.088;2024-01-07T14:15:24;94795.78;;;-1.75;82.06
75166;BME280;63747;48.042;10.088;2024-01-07T14:18:25;94802.81;;;-1.64;82.11
75166;BME280;63747;48.042;10.088;2024-01-07T14:21:25;94804.56;;;-1.65;81.87
75166;BME280;63747;48.042;10.088;2024-01-07T14:24:27;94798.78;;;-1.69;81.89
75166;BME280;63747;48.042;10.088;2024-01-07T14:27:27;94807.28;;;-1.66;81.83
75166;BME280;63747;48.042;10.088;2024-01-07T14:30:28;94815.19;;;-1.68;81.80
75166;BME280;63747;48.042;10.088;2024-01-07T14:33:29;94819.09;;;-1.86;81.75
75166;BME280;63747;48.042;10.088;2024-01-07T14:36:30;94814.75;;;-1.99;81.76
75166;BME280;63747;48.042;10.088;2024-01-07T14:39:31;94810.81;;;-2.04;81.93
75166;BME280;63747;48.042;10.088;2024-01-07T14:42:31;94830.88;;;-2.06;81.74
75166;BME280;63747;48.042;10.088;2024-01-07T14:45:32;94832.75;;;-2.21;81.95
75166;BME280;63747;48.042;10.088;2024-01-07T14:48:34;94827.75;;;-2.24;82.35
75166;BME280;63747;48.042;10.088;2024-01-07T14:51:35;94849.56;;;-2.14;82.39
75166;BME280;63747;48.042;10.088;2024-01-07T14:54:36;94840.31;;;-2.18;82.34
75166;BME280;63747;48.042;10.088;2024-01-07T14:57:37;94845.50;;;-2.18;82.24
75166;BME280;63747;48.042;10.088;2024-01-07T15:00:38;94844.09;;;-2.22;82.00
75166;BME280;63747;48.042;10.088;2024-01-07T15:03:39;94847.09;;;-2.28;81.91
75166;BME280;63747;48.042;10.088;2024-01-07T15:06:43;94853.63;;;-2.22;81.96
75166;BME280;63747;48.042;10.088;2024-01-07T15:09:45;94850.63;;;-2.29;81.83
75166;BME280;63747;48.042;10.088;2024-01-07T15:12:45;94844.09;;;-2.35;81.83
75166;BME280;63747;48.042;10.088;2024-01-07T15:15:48;94856.41;;;-2.38;81.83
75166;BME280;63747;48.042;10.088;2024-01-07T15:18:49;94859.97;;;-2.39;82.11
75166;BME280;63747;48.042;10.088;2024-01-07T15:21:49;94861.41;;;-2.48;82.17
75166;BME280;63747;48.042;10.088;2024-01-07T15:24:50;94866.19;;;-2.42;82.10
75166;BME280;63747;48.042;10.088;2024-01-07T15:27:52;94873.56;;;-2.48;82.27
75166;BME280;63747;48.042;10.088;2024-01-07T15:30:53;94866.59;;;-2.61;82.12
75166;BME280;63747;48.042;10.088;2024-01-07T15:33:54;94872.19;;;-2.67;82.29
75166;BME280;63747;48.042;10.088;2024-01-07T15:36:55;94885.16;;;-2.67;82.39
75166;BME280;63747;48.042;10.088;2024-01-07T15:39:55;94875.28;;;-2.74;82.56
75166;BME280;63747;48.042;10.088;2024-01-07T15:42:57;94880.19;;;-2.70;82.79
75166;BME280;63747;48.042;10.088;2024-01-07T15:45:59;94883.19;;;-2.63;82.89
75166;BME280;63747;48.042;10.088;2024-01-07T15:49:01;94884.63;;;-2.59;82.63
75166;BME280;63747;48.042;10.088;2024-01-07T15:52:02;94879.56;;;-2.61;82.36
75166;BME280;63747;48.042;10.088;2024-01-07T15:55:02;94888.81;;;-2.57;82.15